sensor_id;sensor_type;location;lat;lon;timestamp;pressure;altitude;pressure_sealevel;temperature;humidity
70206;BME280;57593;55.896;37.396;2023-04-15T00:00:30;100469.28;;;4.14;31.15
70206;BME280;57593;55.896;37.396;2023-04-15T00:01:01;100455.69;;;4.22;31.26
70206;BME280;57593;55.896;37.396;2023-04-15T00:01:31;100465.63;;;4.05;31.10
70206;BME280;57593;55.896;37.396;2023-04-15T00:02:17;100467.97;;;4.01;31.11
70206;BME280;57593;55.896;37.396;2023-04-15T00:02:47;100474.53;;;4.04;31.05
70206;BME280;57593;55.896;37.396;2023-04-15T00:03:18;100478.44;;;4.01;31.02
70206;BME280;57593;55.896;37.396;2023-04-15T00:03:51;100475.28;;;4.04;31.14
70206;BME280;57593;55.896;37.396;2023-04-15T00:04:24;100473.19;;;3.96;31.06
70206;BME280;57593;55.896;37.396;2023-04-15T00:04:54;100468.75;;;3.96;31.00
70206;BME280;57593;55.896;37.396;2023-04-15T00:05:25;100464.53;;;3.90;31.17
70206;BME280;57593;55.896;37.396;2023-04-15T00:05:59;100467.41;;;3.94;31.18
70206;BME280;57593;55.896;37.396;2023-04-15T00:06:30;100472.69;;;3.99;31.14
70206;BME280;57593;55.896;37.396;2023-04-15T00:07:01;100476.34;;;4.03;31.32
70206;BME280;57593;55.896;37.396;2023-04-15T00:07:32;100473.97;;;4.02;31.35
70206;BME280;57593;55.896;37.396;2023-04-15T00:08:03;100476.88;;;4.05;31.21
70206;BME280;57593;55.896;37.396;2023-04-15T00:08:34;100478.41;;;3.96;31.27
70206;BME280;57593;55.896;37.396;2023-04-15T00:09:05;100477.88;;;3.89;31.33
70206;BME280;57593;55.896;37.396;2023-04-15T00:09:36;100469.47;;;3.76;31.30
70206;BME280;57593;55.896;37.396;2023-04-15T00:10:06;100479.16;;;3.86;31.12
70206;BME280;57593;55.896;37.396;2023-04-15T00:10:37;100487.56;;;3.99;31.19
70206;BME280;57593;55.896;37.396;2023-04-15T00:11:08;100488.38;;;3.99;31.24
70206;BME280;57593;55.896;37.396;2023-04-15T00:11:38;100479.22;;;4.07;31.30
70206;BME280;57593;55.896;37.396;2023-04-15T00:12:10;100483.41;;;3.98;31.26
70206;BME280;57593;55.896;37.396;2023-04-15T00:12:41;100486.53;;;3.94;31.32
70206;BME280;57593;55.896;37.396;2023-04-15T00:13:12;100481.31;;;4.05;31.48
70206;BME280;57593;55.896;37.396;2023-04-15T00:13:43;100478.13;;;3.82;31.39
70206;BME280;57593;55.896;37.396;2023-04-15T00:14:14;100480.78;;;3.98;31.35
70206;BME280;57593;55.896;37.396;2023-04-15T00:14:44;100482.31;;;3.99;31.25
70206;BME280;57593;55.896;37.396;2023-04-15T00:15:15;100487.81;;;3.87;31.37
70206;BME280;57593;55.896;37.396;2023-04-15T00:15:46;100482.56;;;3.87;31.42
70206;BME280;57593;55.896;37.396;2023-04-15T00:16:17;100488.03;;;3.80;31.27
70206;BME280;57593;55.896;37.396;2023-04-15T00:16:47;100498.72;;;3.68;31.30
70206;BME280;57593;55.896;37.396;2023-04-15T00:17:24;100489.47;;;3.50;31.51
70206;BME280;57593;55.896;37.396;2023-04-15T00:17:55;100492.47;;;3.85;31.39
70206;BME280;57593;55.896;37.396;2023-04-15T00:18:26;100485.97;;;3.82;31.29
70206;BME280;57593;55.896;37.396;2023-04-15T00:18:56;100492.75;;;3.83;31.37
70206;BME280;57593;55.896;37.396;2023-04-15T00:19:27;100484.44;;;4.02;31.04
70206;BME280;57593;55.896;37.396;2023-04-15T00:19:58;100480.22;;;3.90;31.30
70206;BME280;57593;55.896;37.396;2023-04-15T00:20:29;100495.66;;;3.87;31.16
70206;BME280;57593;55.896;37.396;2023-04-15T00:21:00;100500.63;;;3.93;31.24
70206;BME280;57593;55.896;37.396;2023-04-15T00:21:30;100501.66;;;3.92;31.08
70206;BME280;57593;55.896;37.396;2023-04-15T00:22:01;100506.88;;;3.82;31.05
70206;BME280;57593;55.896;37.396;2023-04-15T00:22:32;100500.31;;;3.85;31.36
70206;BME280;57593;55.896;37.396;2023-04-15T00:23:02;100496.94;;;3.84;31.18
70206;BME280;57593;55.896;37.396;2023-04-15T00:23:33;100498.00;;;3.88;31.39
70206;BME280;57593;55.896;37.396;2023-04-15T00:24:06;100506.63;;;3.89;31.24
70206;BME280;57593;55.896;37.396;2023-04-15T00:24:37;100502.19;;;3.94;31.13
70206;BME280;57593;55.896;37.396;2023-04-15T00:25:08;100500.31;;;3.85;31.12
70206;BME280;57593;55.896;37.396;2023-04-15T00:25:39;100495.91;;;3.85;31.17
70206;BME280;57593;55.896;37.396;2023-04-15T00:26:10;100495.94;;;4.01;31.11
70206;BME280;57593;55.896;37.396;2023-04-15T00:26:41;100488.63;;;4.03;31.28
70206;BME280;57593;55.896;37.396;2023-04-15T00:27:12;100498.72;;;3.78;31.11
70206;BME280;57593;55.896;37.396;2023-04-15T00:27:42;100504.56;;;3.96;30.89
70206;BME280;57593;55.896;37.396;2023-04-15T00:28:13;100498.50;;;3.85;31.11
70206;BME280;57593;55.896;37.396;2023-04-15T00:28:43;100494.06;;;3.86;31.33
70206;BME280;57593;55.896;37.396;2023-04-15T00:29:14;100499.53;;;3.84;31.16
70206;BME280;57593;55.896;37.396;2023-04-15T00:29:45;100498.50;;;3.85;31.09
70206;BME280;57593;55.896;37.396;2023-04-15T00:30:16;100504.50;;;3.86;31.09
70206;BME280;57593;55.896;37.396;2023-04-15T00:30:47;100505.31;;;3.91;31.17
70206;BME280;57593;55.896;37.396;2023-04-15T00:31:18;100505.84;;;3.88;31.20
70206;BME280;57593;55.896;37.396;2023-04-15T00:31:50;100499.06;;;3.98;31.05
70206;BME280;57593;55.896;37.396;2023-04-15T00:32:20;100493.81;;;3.82;31.06
70206;BME280;57593;55.896;37.396;2023-04-15T00:32:51;100499.50;;;3.74;31.17
70206;BME280;57593;55.896;37.396;2023-04-15T00:33:25;100493.53;;;3.84;31.22
70206;BME280;57593;55.896;37.396;2023-04-15T00:33:55;100499.50;;;3.74;31.12
70206;BME280;57593;55.896;37.396;2023-04-15T00:34:26;100505.03;;;3.88;31.20
70206;BME280;57593;55.896;37.396;2023-04-15T00:34:58;100505.34;;;3.96;31.14
70206;BME280;57593;55.896;37.396;2023-04-15T00:35:28;100497.75;;;3.90;31.02
70206;BME280;57593;55.896;37.396;2023-04-15T00:36:02;100498.00;;;3.93;31.10
70206;BME280;57593;55.896;37.396;2023-04-15T00:36:33;100498.50;;;3.85;31.11
70206;BME280;57593;55.896;37.396;2023-04-15T00:37:04;100502.66;;;3.76;31.25
70206;BME280;57593;55.896;37.396;2023-04-15T00:37:35;100504.78;;;3.84;31.33
70206;BME280;57593;55.896;37.396;2023-04-15T00:38:06;100515.53;;;3.98;31.13
70206;BME280;57593;55.896;37.396;2023-04-15T00:38:39;100507.69;;;4.03;31.21
70206;BME280;57593;55.896;37.396;2023-04-15T00:39:10;100513.13;;;3.86;31.04
70206;BME280;57593;55.896;37.396;2023-04-15T00:39:41;100508.22;;;3.95;30.84
70206;BME280;57593;55.896;37.396;2023-04-15T00:40:12;100511.06;;;3.93;31.18
70206;BME280;57593;55.896;37.396;2023-04-15T00:40:43;100515.19;;;3.74;31.25
70206;BME280;57593;55.896;37.396;2023-04-15T00:41:14;100502.41;;;3.83;31.24
70206;BME280;57593;55.896;37.396;2023-04-15T00:41:45;100511.25;;;3.71;31.34
70206;BME280;57593;55.896;37.396;2023-04-15T00:42:17;100519.88;;;3.72;31.34
70206;BME280;57593;55.896;37.396;2023-04-15T00:42:49;100517.75;;;3.64;31.36
70206;BME280;57593;55.896;37.396;2023-04-15T00:43:19;100516.75;;;3.80;31.28
70206;BME280;57593;55.896;37.396;2023-04-15T00:43:50;100513.63;;;3.78;30.97
70206;BME280;57593;55.896;37.396;2023-04-15T00:44:21;100518.34;;;3.76;30.98
70206;BME280;57593;55.896;37.396;2023-04-15T00:44:52;100518.09;;;3.77;31.09
70206;BME280;57593;55.896;37.396;2023-04-15T00:45:23;100511.28;;;3.82;30.92
70206;BME280;57593;55.896;37.396;2023-04-15T00:45:55;100507.09;;;3.75;30.98
70206;BME280;57593;55.896;37.396;2023-04-15T00:46:29;100504.97;;;3.72;31.00
70206;BME280;57593;55.896;37.396;2023-04-15T00:47:02;100520.91;;;3.71;30.85
70206;BME280;57593;55.896;37.396;2023-04-15T00:47:34;100524.06;;;3.68;30.90
70206;BME280;57593;55.896;37.396;2023-04-15T00:48:06;100521.72;;;3.76;31.18
70206;BME280;57593;55.896;37.396;2023-04-15T00:48:37;100504.75;;;3.79;31.04
70206;BME280;57593;55.896;37.396;2023-04-15T00:49:09;100519.88;;;3.77;31.17
70206;BME280;57593;55.896;37.396;2023-04-15T00:49:40;100517.84;;;3.79;31.24
70206;BME280;57593;55.896;37.396;2023-04-15T00:50:11;100517.00;;;3.68;31.26
70206;BME280;57593;55.896;37.396;2023-04-15T00:50:42;100526.44;;;3.80;31.30
70206;BME280;57593;55.896;37.396;2023-04-15T00:51:13;100516.81;;;3.85;31.24
70206;BME280;57593;55.896;37.396;2023-04-15T00:51:44;100522.53;;;3.82;31.26
70206;BME280;57593;55.896;37.396;2023-04-15T00:52:14;100514.41;;;3.73;31.40
70206;BME280;57593;55.896;37.396;2023-04-15T00:52:45;100522.53;;;3.82;31.18
70206;BME280;57593;55.896;37.396;2023-04-15T00:53:16;100517.41;;;3.45;31.32
70206;BME280;57593;55.896;37.396;2023-04-15T00:53:46;100519.78;;;3.51;31.48
70206;BME280;57593;55.896;37.396;2023-04-15T00:54:17;100516.59;;;3.44;31.60
70206;BME280;57593;55.896;37.396;2023-04-15T00:54:48;100517.41;;;3.45;31.51
70206;BME280;57593;55.896;37.396;2023-04-15T00:55:20;100526.88;;;3.56;31.38
70206;BME280;57593;55.896;37.396;2023-04-15T00:55:51;100524.19;;;3.46;31.32
70206;BME280;57593;55.896;37.396;2023-04-15T00:56:22;100529.47;;;3.51;31.40
70206;BME280;57593;55.896;37.396;2023-04-15T00:56:54;100528.16;;;3.53;31.44
70206;BME280;57593;55.896;37.396;2023-04-15T00:57:27;100539.41;;;3.54;31.66
70206;BME280;57593;55.896;37.396;2023-04-15T00:57:58;100542.56;;;3.61;31.76
70206;BME280;57593;55.896;37.396;2023-04-15T00:58:28;100533.13;;;3.55;31.63
70206;BME280;57593;55.896;37.396;2023-04-15T00:59:00;100536.56;;;3.60;31.23
70206;BME280;57593;55.896;37.396;2023-04-15T00:59:32;100530.81;;;3.64;31.26
70206;BME280;57593;55.896;37.396;2023-04-15T01:00:04;100528.22;;;3.64;31.07
70206;BME280;57593;55.896;37.396;2023-04-15T01:00:37;100526.38;;;3.69;31.12
70206;BME280;57593;55.896;37.396;2023-04-15T01:01:07;100545.16;;;3.56;30.93
70206;BME280;57593;55.896;37.396;2023-04-15T01:01:39;100543.63;;;3.60;31.11
70206;BME280;57593;55.896;37.396;2023-04-15T01:02:10;100526.38;;;3.64;31.11
70206;BME280;57593;55.896;37.396;2023-04-15T01:02:41;100541.78;;;3.66;31.10
70206;BME280;57593;55.896;37.396;2023-04-15T01:03:12;100540.75;;;3.62;31.26
70206;BME280;57593;55.896;37.396;2023-04-15T01:03:43;100536.06;;;3.69;31.27
70206;BME280;57593;55.896;37.396;2023-04-15T01:04:14;100542.53;;;3.56;31.38
70206;BME280;57593;55.896;37.396;2023-04-15T01:04:45;100541.78;;;3.60;31.55
70206;BME280;57593;55.896;37.396;2023-04-15T01:05:16;100546.44;;;3.53;31.45
70206;BME280;57593;55.896;37.396;2023-04-15T01:05:49;100541.53;;;3.62;31.31
70206;BME280;57593;55.896;37.396;2023-04-15T01:06:19;100545.41;;;3.54;31.21
70206;BME280;57593;55.896;37.396;2023-04-15T01:06:50;100523.00;;;3.64;31.22
70206;BME280;57593;55.896;37.396;2023-04-15T01:07:21;100536.75;;;3.49;30.88
70206;BME280;57593;55.896;37.396;2023-04-15T01:07:52;100537.00;;;3.47;31.36
70206;BME280;57593;55.896;37.396;2023-04-15T01:08:27;100538.31;;;3.50;31.69
70206;BME280;57593;55.896;37.396;2023-04-15T01:08:58;100542.22;;;3.47;31.61
70206;BME280;57593;55.896;37.396;2023-04-15T01:09:29;100550.88;;;3.53;31.47
70206;BME280;57593;55.896;37.396;2023-04-15T01:10:00;100548.78;;;3.55;31.38
70206;BME280;57593;55.896;37.396;2023-04-15T01:10:32;100547.78;;;3.61;31.44
70206;BME280;57593;55.896;37.396;2023-04-15T01:11:03;100545.44;;;3.59;31.23
70206;BME280;57593;55.896;37.396;2023-04-15T01:11:34;100547.53;;;3.63;31.25
70206;BME280;57593;55.896;37.396;2023-04-15T01:12:06;100554.09;;;3.65;31.15
70206;BME280;57593;55.896;37.396;2023-04-15T01:12:37;100551.47;;;3.65;31.29
70206;BME280;57593;55.896;37.396;2023-04-15T01:13:08;100553.06;;;3.66;31.30
70206;BME280;57593;55.896;37.396;2023-04-15T01:13:39;100535.19;;;3.48;31.14
70206;BME280;57593;55.896;37.396;2023-04-15T01:14:10;100544.28;;;3.40;31.37
70206;BME280;57593;55.896;37.396;2023-04-15T01:14:41;100541.59;;;3.24;31.12
70206;BME280;57593;55.896;37.396;2023-04-15T01:15:12;100541.09;;;3.33;31.22
70206;BME280;57593;55.896;37.396;2023-04-15T01:15:43;100546.84;;;3.35;31.33
70206;BME280;57593;55.896;37.396;2023-04-15T01:16:14;100545.81;;;3.36;31.19
70206;BME280;57593;55.896;37.396;2023-04-15T01:16:46;100556.28;;;3.36;31.44
70206;BME280;57593;55.896;37.396;2023-04-15T01:17:17;100548.41;;;3.31;31.33
70206;BME280;57593;55.896;37.396;2023-04-15T01:17:48;100543.19;;;3.31;31.39
70206;BME280;57593;55.896;37.396;2023-04-15T01:18:19;100548.41;;;3.31;31.30
70206;BME280;57593;55.896;37.396;2023-04-15T01:18:51;100555.75;;;3.34;31.33
70206;BME280;57593;55.896;37.396;2023-04-15T01:19:22;100546.66;;;3.41;31.43
70206;BME280;57593;55.896;37.396;2023-04-15T01:19:55;100547.44;;;3.47;31.38
70206;BME280;57593;55.896;37.396;2023-04-15T01:20:28;100556.00;;;3.37;31.65
70206;BME280;57593;55.896;37.396;2023-04-15T01:21:00;100554.97;;;3.38;31.50
70206;BME280;57593;55.896;37.396;2023-04-15T01:21:31;100558.69;;;3.48;31.36
70206;BME280;57593;55.896;37.396;2023-04-15T01:22:02;100550.81;;;3.42;31.28
70206;BME280;57593;55.896;37.396;2023-04-15T01:22:34;100547.59;;;3.30;31.30
70206;BME280;57593;55.896;37.396;2023-04-15T01:23:05;100551.53;;;3.33;31.35
70206;BME280;57593;55.896;37.396;2023-04-15T01:23:37;100552.66;;;3.42;31.44
70206;BME280;57593;55.896;37.396;2023-04-15T01:24:09;100554.19;;;3.38;31.70
70206;BME280;57593;55.896;37.396;2023-04-15T01:24:44;100549.84;;;3.16;31.57
70206;BME280;57593;55.896;37.396;2023-04-15T01:25:30;100543.34;;;3.19;31.64
70206;BME280;57593;55.896;37.396;2023-04-15T01:26:02;100555.13;;;3.21;31.72
70206;BME280;57593;55.896;37.396;2023-04-15T01:26:33;100554.56;;;3.19;31.66
70206;BME280;57593;55.896;37.396;2023-04-15T01:27:04;100556.41;;;3.19;31.64
70206;BME280;57593;55.896;37.396;2023-04-15T01:27:37;100558.50;;;3.17;31.65
70206;BME280;57593;55.896;37.396;2023-04-15T01:28:09;100546.00;;;3.24;31.58
70206;BME280;57593;55.896;37.396;2023-04-15T01:28:40;100544.97;;;3.25;31.60
70206;BME280;57593;55.896;37.396;2023-04-15T01:29:11;100550.72;;;3.27;31.58
70206;BME280;57593;55.896;37.396;2023-04-15T01:29:42;100552.63;;;3.37;31.43
70206;BME280;57593;55.896;37.396;2023-04-15T01:30:13;100551.72;;;3.21;31.30
70206;BME280;57593;55.896;37.396;2023-04-15T01:30:43;100547.81;;;3.18;31.53
70206;BME280;57593;55.896;37.396;2023-04-15T01:31:14;100554.38;;;3.26;31.47
70206;BME280;57593;55.896;37.396;2023-04-15T01:31:51;100559.28;;;3.17;31.54
70206;BME280;57593;55.896;37.396;2023-04-15T01:32:41;100561.00;;;3.01;31.54
70206;BME280;57593;55.896;37.396;2023-04-15T01:33:31;100558.13;;;3.03;31.62
70206;BME280;57593;55.896;37.396;2023-04-15T01:34:21;100566.47;;;3.00;31.85
70206;BME280;57593;55.896;37.396;2023-04-15T01:35:10;100569.09;;;3.05;31.96
70206;BME280;57593;55.896;37.396;2023-04-15T01:35:51;100554.91;;;2.91;31.83
70206;BME280;57593;55.896;37.396;2023-04-15T01:36:22;100556.28;;;2.98;31.85
70206;BME280;57593;55.896;37.396;2023-04-15T01:36:56;100563.38;;;3.08;31.71
70206;BME280;57593;55.896;37.396;2023-04-15T01:37:27;100561.28;;;3.05;31.70
70206;BME280;57593;55.896;37.396;2023-04-15T01:38:04;100559.41;;;3.00;31.82
70206;BME280;57593;55.896;37.396;2023-04-15T01:38:36;100569.56;;;2.97;32.19
70206;BME280;57593;55.896;37.396;2023-04-15T01:39:07;100563.88;;;3.05;32.32
70206;BME280;57593;55.896;37.396;2023-04-15T01:39:38;100565.81;;;3.15;32.14
70206;BME280;57593;55.896;37.396;2023-04-15T01:40:09;100569.22;;;3.20;32.05
70206;BME280;57593;55.896;37.396;2023-04-15T01:40:41;100560.38;;;3.27;32.11
70206;BME280;57593;55.896;37.396;2023-04-15T01:41:13;100570.56;;;3.23;31.87
70206;BME280;57593;55.896;37.396;2023-04-15T01:41:45;100565.09;;;3.24;31.91
70206;BME280;57593;55.896;37.396;2023-04-15T01:42:17;100560.84;;;3.18;32.00
70206;BME280;57593;55.896;37.396;2023-04-15T01:42:48;100580.41;;;3.16;32.00
70206;BME280;57593;55.896;37.396;2023-04-15T01:43:20;100565.25;;;3.13;32.25
70206;BME280;57593;55.896;37.396;2023-04-15T01:43:53;100571.28;;;3.13;32.30
70206;BME280;57593;55.896;37.396;2023-04-15T01:44:25;100562.66;;;3.18;32.05
70206;BME280;57593;55.896;37.396;2023-04-15T01:44:58;100564.75;;;3.16;32.20
70206;BME280;57593;55.896;37.396;2023-04-15T01:45:30;100562.16;;;3.21;32.15
70206;BME280;57593;55.896;37.396;2023-04-15T01:46:02;100571.34;;;3.29;32.09
70206;BME280;57593;55.896;37.396;2023-04-15T01:46:34;100566.78;;;3.09;31.88
70206;BME280;57593;55.896;37.396;2023-04-15T01:47:06;100564.22;;;3.14;31.89
70206;BME280;57593;55.896;37.396;2023-04-15T01:47:38;100566.34;;;3.22;31.69
70206;BME280;57593;55.896;37.396;2023-04-15T01:48:10;100558.53;;;3.22;31.59
70206;BME280;57593;55.896;37.396;2023-04-15T01:48:43;100556.91;;;3.16;31.63
70206;BME280;57593;55.896;37.396;2023-04-15T01:49:14;100561.63;;;3.19;31.77
70206;BME280;57593;55.896;37.396;2023-04-15T01:49:47;100567.69;;;3.24;31.87
70206;BME280;57593;55.896;37.396;2023-04-15T01:50:19;100564.06;;;3.31;31.92
70206;BME280;57593;55.896;37.396;2023-04-15T01:50:53;100575.31;;;3.36;31.58
70206;BME280;57593;55.896;37.396;2023-04-15T01:51:26;100565.97;;;3.40;31.56
70206;BME280;57593;55.896;37.396;2023-04-15T01:51:58;100568.28;;;3.37;31.66
70206;BME280;57593;55.896;37.396;2023-04-15T01:52:31;100577.66;;;3.33;31.73
70206;BME280;57593;55.896;37.396;2023-04-15T01:53:03;100579.28;;;3.39;31.54
70206;BME280;57593;55.896;37.396;2023-04-15T01:53:35;100567.22;;;3.33;31.49
70206;BME280;57593;55.896;37.396;2023-04-15T01:54:07;100576.78;;;3.17;31.34
70206;BME280;57593;55.896;37.396;2023-04-15T01:54:39;100574.22;;;3.27;31.64
70206;BME280;57593;55.896;37.396;2023-04-15T01:55:11;100577.63;;;3.28;31.78
70206;BME280;57593;55.896;37.396;2023-04-15T01:55:43;100582.00;;;3.17;31.76
70206;BME280;57593;55.896;37.396;2023-04-15T01:56:19;100566.84;;;3.14;31.84
70206;BME280;57593;55.896;37.396;2023-04-15T01:56:52;100571.28;;;3.13;31.89
70206;BME280;57593;55.896;37.396;2023-04-15T01:57:23;100579.94;;;3.24;31.81
70206;BME280;57593;55.896;37.396;2023-04-15T01:57:56;100582.31;;;3.26;31.68
70206;BME280;57593;55.896;37.396;2023-04-15T01:58:28;100584.09;;;3.20;31.56
70206;BME280;57593;55.896;37.396;2023-04-15T01:59:01;100584.97;;;3.31;31.82
70206;BME280;57593;55.896;37.396;2023-04-15T01:59:34;100572.09;;;3.24;31.58
70206;BME280;57593;55.896;37.396;2023-04-15T02:00:07;100573.03;;;3.08;31.57
70206;BME280;57593;55.896;37.396;2023-04-15T02:00:44;100570.94;;;3.04;31.88
70206;BME280;57593;55.896;37.396;2023-04-15T02:01:16;100587.22;;;3.17;31.94
70206;BME280;57593;55.896;37.396;2023-04-15T02:01:50;100585.13;;;3.19;31.85
70206;BME280;57593;55.896;37.396;2023-04-15T02:02:22;100584.88;;;3.20;31.93
70206;BME280;57593;55.896;37.396;2023-04-15T02:02:54;100567.59;;;3.14;31.73
70206;BME280;57593;55.896;37.396;2023-04-15T02:03:29;100583.84;;;3.21;31.78
70206;BME280;57593;55.896;37.396;2023-04-15T02:04:01;100580.69;;;3.19;31.82
70206;BME280;57593;55.896;37.396;2023-04-15T02:04:35;100584.88;;;3.20;31.73
70206;BME280;57593;55.896;37.396;2023-04-15T02:05:08;100581.19;;;3.16;31.66
70206;BME280;57593;55.896;37.396;2023-04-15T02:05:42;100581.16;;;3.11;31.55
70206;BME280;57593;55.896;37.396;2023-04-15T02:06:15;100593.59;;;2.99;31.81
70206;BME280;57593;55.896;37.396;2023-04-15T02:06:47;100586.34;;;3.06;31.62
70206;BME280;57593;55.896;37.396;2023-04-15T02:07:19;100580.53;;;2.99;31.66
70206;BME280;57593;55.896;37.396;2023-04-15T02:07:51;100579.00;;;3.03;31.74
70206;BME280;57593;55.896;37.396;2023-04-15T02:08:24;100590.03;;;3.10;31.81
70206;BME280;57593;55.896;37.396;2023-04-15T02:08:56;100594.72;;;3.08;31.89
70206;BME280;57593;55.896;37.396;2023-04-15T02:09:28;100586.97;;;3.18;32.02
70206;BME280;57593;55.896;37.396;2023-04-15T02:09:59;100583.16;;;2.99;31.95
70206;BME280;57593;55.896;37.396;2023-04-15T02:10:31;100572.69;;;2.99;31.96
70206;BME280;57593;55.896;37.396;2023-04-15T02:11:03;100574.38;;;2.78;31.98
70206;BME280;57593;55.896;37.396;2023-04-15T02:11:36;100594.44;;;2.77;32.19
70206;BME280;57593;55.896;37.396;2023-04-15T02:12:09;100591.91;;;2.82;32.47
70206;BME280;57593;55.896;37.396;2023-04-15T02:12:41;100593.75;;;2.87;32.41
70206;BME280;57593;55.896;37.396;2023-04-15T02:13:13;100602.16;;;2.94;32.20
70206;BME280;57593;55.896;37.396;2023-04-15T02:13:45;100593.91;;;3.02;32.28
70206;BME280;57593;55.896;37.396;2023-04-15T02:14:17;100596.25;;;3.04;32.36
70206;BME280;57593;55.896;37.396;2023-04-15T02:14:49;100594.31;;;2.94;32.25
70206;BME280;57593;55.896;37.396;2023-04-15T02:15:21;100603.59;;;3.07;32.48
70206;BME280;57593;55.896;37.396;2023-04-15T02:15:55;100604.66;;;3.11;32.18
70206;BME280;57593;55.896;37.396;2023-04-15T02:16:27;100599.19;;;3.13;32.32
70206;BME280;57593;55.896;37.396;2023-04-15T02:16:59;100610.13;;;3.10;32.02
70206;BME280;57593;55.896;37.396;2023-04-15T02:17:37;100601.97;;;3.01;32.22
70206;BME280;57593;55.896;37.396;2023-04-15T02:18:09;100597.88;;;3.10;32.19
70206;BME280;57593;55.896;37.396;2023-04-15T02:18:41;100602.47;;;2.98;31.96
70206;BME280;57593;55.896;37.396;2023-04-15T02:19:14;100605.72;;;3.10;32.02
70206;BME280;57593;55.896;37.396;2023-04-15T02:19:46;100605.72;;;3.10;31.98
70206;BME280;57593;55.896;37.396;2023-04-15T02:20:18;100599.66;;;3.04;31.87
70206;BME280;57593;55.896;37.396;2023-04-15T02:20:52;100602.84;;;3.12;31.83
70206;BME280;57593;55.896;37.396;2023-04-15T02:21:25;100606.25;;;3.17;31.83
70206;BME280;57593;55.896;37.396;2023-04-15T02:21:57;100603.59;;;3.07;31.91
70206;BME280;57593;55.896;37.396;2023-04-15T02:22:29;100601.31;;;3.21;32.04
70206;BME280;57593;55.896;37.396;2023-04-15T02:23:01;100597.16;;;3.20;31.67
70206;BME280;57593;55.896;37.396;2023-04-15T02:23:33;100604.69;;;3.16;31.87
70206;BME280;57593;55.896;37.396;2023-04-15T02:24:05;100598.41;;;3.12;31.80
70206;BME280;57593;55.896;37.396;2023-04-15T02:24:38;100603.38;;;3.14;31.85
70206;BME280;57593;55.896;37.396;2023-04-15T02:25:10;100609.00;;;3.00;31.82
70206;BME280;57593;55.896;37.396;2023-04-15T02:25:42;100607.75;;;3.08;31.89
70206;BME280;57593;55.896;37.396;2023-04-15T02:26:14;100607.19;;;3.01;31.85
70206;BME280;57593;55.896;37.396;2023-04-15T02:26:46;100610.06;;;2.99;31.91
70206;BME280;57593;55.896;37.396;2023-04-15T02:27:17;100609.34;;;3.09;32.35
70206;BME280;57593;55.896;37.396;2023-04-15T02:27:49;100612.94;;;3.03;32.53
70206;BME280;57593;55.896;37.396;2023-04-15T02:28:21;100612.69;;;3.04;32.44
70206;BME280;57593;55.896;37.396;2023-04-15T02:28:53;100604.25;;;2.92;32.30
70206;BME280;57593;55.896;37.396;2023-04-15T02:29:25;100612.94;;;3.03;32.37
70206;BME280;57593;55.896;37.396;2023-04-15T02:29:57;100609.25;;;2.99;32.36
70206;BME280;57593;55.896;37.396;2023-04-15T02:30:29;100611.34;;;3.02;32.33
70206;BME280;57593;55.896;37.396;2023-04-15T02:31:05;100612.44;;;3.06;32.42
70206;BME280;57593;55.896;37.396;2023-04-15T02:31:37;100619.44;;;3.00;32.25
70206;BME280;57593;55.896;37.396;2023-04-15T02:32:11;100620.75;;;2.98;32.27
70206;BME280;57593;55.896;37.396;2023-04-15T02:32:43;100619.75;;;3.04;32.11
70206;BME280;57593;55.896;37.396;2023-04-15T02:33:15;100613.94;;;2.97;32.07
70206;BME280;57593;55.896;37.396;2023-04-15T02:33:48;100617.53;;;2.91;32.20
70206;BME280;57593;55.896;37.396;2023-04-15T02:34:20;100606.63;;;2.99;32.09
70206;BME280;57593;55.896;37.396;2023-04-15T02:34:52;100619.66;;;2.94;31.92
70206;BME280;57593;55.896;37.396;2023-04-15T02:35:24;100621.56;;;3.03;32.05
70206;BME280;57593;55.896;37.396;2023-04-15T02:35:56;100612.19;;;3.08;31.87
70206;BME280;57593;55.896;37.396;2023-04-15T02:36:31;100619.19;;;3.02;31.82
70206;BME280;57593;55.896;37.396;2023-04-15T02:37:03;100620.25;;;3.01;31.69
70206;BME280;57593;55.896;37.396;2023-04-15T02:37:36;100626.28;;;3.06;32.00
70206;BME280;57593;55.896;37.396;2023-04-15T02:38:14;100621.88;;;3.07;31.86
70206;BME280;57593;55.896;37.396;2023-04-15T02:38:48;100621.63;;;3.09;31.85
70206;BME280;57593;55.896;37.396;2023-04-15T02:39:21;100620.91;;;3.18;32.21
70206;BME280;57593;55.896;37.396;2023-04-15T02:39:53;100624.53;;;3.17;31.99
70206;BME280;57593;55.896;37.396;2023-04-15T02:40:26;100617.53;;;3.23;31.82
70206;BME280;57593;55.896;37.396;2023-04-15T02:40:58;100617.69;;;3.11;31.96
70206;BME280;57593;55.896;37.396;2023-04-15T02:41:30;100624.50;;;3.12;31.88
70206;BME280;57593;55.896;37.396;2023-04-15T02:42:03;100632.66;;;3.21;31.82
70206;BME280;57593;55.896;37.396;2023-04-15T02:42:37;100626.69;;;3.26;31.64
70206;BME280;57593;55.896;37.396;2023-04-15T02:43:10;100627.88;;;3.08;32.00
70206;BME280;57593;55.896;37.396;2023-04-15T02:43:43;100621.88;;;2.80;31.90
70206;BME280;57593;55.896;37.396;2023-04-15T02:44:15;100625.31;;;2.85;32.11
70206;BME280;57593;55.896;37.396;2023-04-15T02:44:49;100631.91;;;2.93;32.01
70206;BME280;57593;55.896;37.396;2023-04-15T02:45:22;100629.34;;;2.98;32.06
70206;BME280;57593;55.896;37.396;2023-04-15T02:45:56;100639.00;;;2.98;31.98
70206;BME280;57593;55.896;37.396;2023-04-15T02:46:28;100639.28;;;3.01;32.32
70206;BME280;57593;55.896;37.396;2023-04-15T02:47:00;100637.03;;;3.10;32.21
70206;BME280;57593;55.896;37.396;2023-04-15T02:47:34;100636.78;;;3.12;32.25
70206;BME280;57593;55.896;37.396;2023-04-15T02:48:06;100640.94;;;3.13;32.14
70206;BME280;57593;55.896;37.396;2023-04-15T02:48:38;100642.75;;;3.07;31.96